Time;durP1;ratioP1;P1;durP2;ratioP2;P2;SDS_P1;SDS_P2;PMS_P1;PMS_P2;Temp;Humidity;BMP_temperature;BMP_pressure;BME280_temperature;BME280_humidity;BME280_pressure;Samples;Min_cycle;Max_cycle;Signal;HPM_P1;HPM_P2
2022/06/15 00:01:59;;;;;;;3.40;1.70;;;;;12.40;97820.40;;;;110635;1253;42149;-62
2022/06/15 00:04:30;;;;;;;;;;;;;12.40;97812.80;;;;110608;1251;41146;-62
2022/06/15 00:07:01;;;;;;;3.10;1.70;;;;;12.30;97811.60;;;;110708;1251;41975;-62
2022/06/15 00:09:31;;;;;;;4.50;2.00;;;;;12.26;97808.20;;;;110637;1251;41260;-62
2022/06/15 00:12:02;;;;;;;6.00;2.40;;;;;12.26;97809.60;;;;110525;1252;41698;-62
2022/06/15 00:14:32;;;;;;;6.30;2.40;;;;;12.30;97811.00;;;;110576;1251;41158;-62
2022/06/15 00:17:03;;;;;;;4.40;2.10;;;;;12.20;97816.80;;;;110792;1251;41153;-63
2022/06/15 00:19:34;;;;;;;6.10;2.20;;;;;12.14;97814.00;;;;110539;1253;41626;-63
2022/06/15 00:22:04;;;;;;;8.40;2.40;;;;;12.00;97812.20;;;;110562;1253;41136;-63
2022/06/15 00:24:34;;;;;;;5.70;2.30;;;;;11.80;97816.80;;;;110532;1254;41390;-62
2022/06/15 00:27:04;;;;;;;6.30;2.20;;;;;11.70;97817.40;;;;110595;1251;41261;-63
2022/06/15 00:29:37;;;;;;;6.10;2.30;;;;;11.60;97819.60;;;;110568;1254;41278;-63
2022/06/15 00:32:07;;;;;;;5.30;2.10;;;;;11.56;97817.40;;;;110559;1252;41687;-63
2022/06/15 00:34:39;;;;;;;7.70;2.60;;;;;11.50;97816.00;;;;110537;1253;41255;-63
2022/06/15 00:37:09;;;;;;;5.70;2.50;;;;;11.24;97813.80;;;;110637;1251;41259;-63
2022/06/15 00:39:40;;;;;;;8.40;2.80;;;;;11.00;97813.80;;;;110739;1250;41909;-63
2022/06/15 00:42:12;;;;;;;4.70;2.20;;;;;10.96;97815.80;;;;110564;1253;42543;-62
2022/06/15 00:44:42;;;;;;;5.50;2.30;;;;;10.90;97815.00;;;;110726;1251;41145;-62
2022/06/15 00:47:22;;;;;;;6.10;2.20;;;;;10.90;97812.20;;;;110541;1251;41348;-62
2022/06/15 00:50:03;;;;;;;4.80;2.00;;;;;10.90;97815.40;;;;110706;1251;41128;-62
2022/06/15 00:52:37;;;;;;;4.30;2.00;;;;;10.90;97812.60;;;;110748;1250;41657;-60
2022/06/15 00:55:20;;;;;;;5.80;2.00;;;;;10.90;97816.40;;;;110699;1251;41174;-61
2022/06/15 00:57:50;;;;;;;6.20;2.30;;;;;10.90;97818.20;;;;110413;1253;41157;-63
2022/06/15 01:00:22;;;;;;;5.50;2.20;;;;;10.90;97818.60;;;;110577;1253;41265;-63
2022/06/15 01:02:52;;;;;;;6.50;2.60;;;;;10.90;97817.40;;;;110478;1253;41208;-62
2022/06/15 01:05:36;;;;;;;4.50;2.10;;;;;10.90;97815.60;;;;110500;1251;42160;-61
2022/06/15 01:08:26;;;;;;;7.60;2.50;;;;;10.96;97822.20;;;;110582;1253;41263;-63
2022/06/15 01:11:15;;;;;;;6.00;2.40;;;;;10.90;97819.40;;;;110617;1251;42413;-62
2022/06/15 01:14:12;;;;;;;6.00;2.40;;;;;10.80;97822.80;;;;110743;1251;41175;-62
2022/06/15 01:16:52;;;;;;;6.60;2.50;;;;;10.80;97818.80;;;;110563;1250;41166;-61
2022/06/15 01:19:42;;;;;;;5.50;2.30;;;;;10.70;97818.80;;;;110520;1253;41491;-62
2022/06/15 01:22:44;;;;;;;6.00;2.40;;;;;10.60;97821.20;;;;110675;1251;42263;-62
2022/06/15 01:25:27;;;;;;;7.20;2.80;;;;;10.50;97822.80;;;;110653;1251;41885;-62
2022/06/15 01:28:05;;;;;;;6.80;3.00;;;;;10.50;97827.00;;;;110626;1251;42983;-63
2022/06/15 01:31:13;;;;;;;6.40;2.30;;;;;10.36;97830.00;;;;110672;1253;41245;-62
2022/06/15 01:34:10;;;;;;;5.10;2.10;;;;;10.40;97834.60;;;;110597;1253;41784;-62
2022/06/15 01:37:13;;;;;;;5.70;2.20;;;;;10.40;97830.60;;;;110702;1251;42232;-62
2022/06/15 01:39:49;;;;;;;3.60;1.90;;;;;10.40;97834.40;;;;110414;1253;41166;-62
2022/06/15 01:42:31;;;;;;;4.90;2.10;;;;;10.40;97835.00;;;;110625;1251;41419;-62
2022/06/15 01:45:10;;;;;;;5.00;1.90;;;;;10.40;97834.00;;;;110573;1251;41716;-62
2022/06/15 01:47:43;;;;;;;4.00;2.00;;;;;10.40;97833.60;;;;110508;1253;41343;-63
2022/06/15 01:50:19;;;;;;;6.50;2.30;;;;;10.36;97832.20;;;;110600;1253;42444;-63
2022/06/15 01:53:20;;;;;;;5.60;2.30;;;;;10.40;97830.80;;;;110608;1252;41901;-63
2022/06/15 01:56:03;;;;;;;4.40;2.00;;;;;10.40;97832.00;;;;110523;1253;43120;-62
2022/06/15 01:58:36;;;;;;;4.30;2.10;;;;;10.36;97829.00;;;;110552;1252;42019;-63
2022/06/15 02:01:31;;;;;;;4.90;2.30;;;;;10.30;97836.80;;;;110461;1251;41158;-62
2022/06/15 02:04:16;;;;;;;5.40;2.20;;;;;10.30;97839.60;;;;110569;1253;41149;-62
2022/06/15 02:07:31;;;;;;;4.00;2.10;;;;;10.28;97836.40;;;;110540;1252;41153;-62
2022/06/15 02:10:31;;;;;;;5.90;2.30;;;;;10.20;97836.60;;;;110353;1253;41175;-62
2022/06/15 02:13:25;;;;;;;7.10;2.70;;;;;10.20;97837.20;;;;110517;1253;41139;-62
2022/06/15 02:16:04;;;;;;;6.50;2.90;;;;;10.20;97840.00;;;;110487;1253;41882;-62
2022/06/15 02:19:01;;;;;;;8.70;2.60;;;;;10.30;97841.60;;;;110706;1251;41139;-62
2022/06/15 02:21:34;;;;;;;6.10;2.70;;;;;10.30;97842.20;;;;110622;1251;41256;-62
2022/06/15 02:24:03;;;;;;;;;;;;;10.20;97845.20;;;;110780;1250;41903;-62
2022/06/15 02:26:37;;;;;;;7.70;2.90;;;;;10.10;97846.00;;;;110573;1252;43041;-63
2022/06/15 02:29:17;;;;;;;7.50;2.80;;;;;10.00;97849.80;;;;110552;1252;42071;-63
2022/06/15 02:31:55;;;;;;;7.60;2.90;;;;;9.92;97842.00;;;;110560;1251;41260;-63
2022/06/15 02:34:26;;;;;;;8.90;2.40;;;;;9.90;97841.60;;;;110610;1251;41130;-63
2022/06/15 02:36:55;;;;;;;5.70;2.40;;;;;9.90;97842.80;;;;110531;1253;41147;-63
2022/06/15 02:39:26;;;;;;;9.30;3.10;;;;;9.90;97841.60;;;;110617;1252;41266;-62
2022/06/15 02:41:59;;;;;;;7.20;2.90;;;;;9.90;97839.60;;;;110604;1253;41690;-61
2022/06/15 02:44:32;;;;;;;8.10;3.00;;;;;9.90;97844.40;;;;110704;1251;41772;-61
2022/06/15 02:47:03;;;;;;;6.50;2.90;;;;;9.90;97841.60;;;;110562;1251;41446;-63
2022/06/15 02:49:33;;;;;;;5.10;2.40;;;;;9.80;97844.00;;;;110537;1251;42549;-63
2022/06/15 02:52:06;;;;;;;5.20;2.30;;;;;9.80;97852.80;;;;110681;1251;41143;-62
2022/06/15 02:54:51;;;;;;;8.70;2.30;;;;;9.82;97854.20;;;;110708;1250;41127;-62
2022/06/15 02:57:26;;;;;;;6.00;2.60;;;;;9.90;97858.80;;;;110509;1253;42178;-62
2022/06/15 02:59:56;;;;;;;8.10;3.40;;;;;9.90;97861.60;;;;110484;1253;41263;-60
2022/06/15 03:02:33;;;;;;;6.30;2.70;;;;;9.86;97863.80;;;;110753;1251;41903;-62
2022/06/15 03:05:05;;;;;;;6.10;2.80;;;;;9.80;97867.60;;;;110544;1253;41141;-62
2022/06/15 03:07:35;;;;;;;4.80;2.40;;;;;9.80;97873.80;;;;110676;1251;41136;-62
2022/06/15 03:10:06;;;;;;;8.30;2.90;;;;;9.82;97874.00;;;;110765;1250;41262;-63
2022/06/15 03:12:36;;;;;;;4.80;2.20;;;;;9.90;97876.00;;;;110515;1253;41186;-62
2022/06/15 03:15:07;;;;;;;4.40;2.00;;;;;9.90;97872.20;;;;110337;1255;42142;-63
2022/06/15 03:17:38;;;;;;;4.70;2.00;;;;;9.90;97873.20;;;;110573;1253;41317;-63
2022/06/15 03:20:10;;;;;;;4.20;2.10;;;;;9.98;97877.00;;;;110612;1252;41155;-62
2022/06/15 03:22:43;;;;;;;6.50;2.40;;;;;10.00;97872.00;;;;110661;1251;41179;-62
2022/06/15 03:25:19;;;;;;;7.00;2.40;;;;;10.06;97871.80;;;;110643;1251;41259;-62
2022/06/15 03:27:49;;;;;;;5.60;2.50;;;;;10.10;97867.60;;;;110574;1251;41467;-63
2022/06/15 03:30:19;;;;;;;5.70;2.40;;;;;10.10;97871.20;;;;110419;1253;41159;-63
2022/06/15 03:32:55;;;;;;;5.60;2.40;;;;;10.20;97875.20;;;;110680;1251;41148;-62
2022/06/15 03:35:34;;;;;;;5.30;2.30;;;;;10.22;97876.20;;;;110519;1253;41150;-63
2022/06/15 03:38:13;;;;;;;6.30;2.50;;;;;10.30;97878.40;;;;110578;1251;41304;-63
2022/06/15 03:40:58;;;;;;;5.80;2.60;;;;;10.40;97879.20;;;;110537;1253;42547;-62
2022/06/15 03:43:28;;;;;;;6.60;2.80;;;;;10.46;97877.00;;;;110620;1252;40904;-62
2022/06/15 03:45:58;;;;;;;8.40;3.00;;;;;10.50;97877.40;;;;110565;1252;41610;-61
2022/06/15 03:48:29;;;;;;;6.70;2.90;;;;;10.52;97880.60;;;;110606;1253;42085;-61
2022/06/15 03:50:59;;;;;;;6.20;2.80;;;;;10.60;97881.60;;;;110512;1253;42280;-62
2022/06/15 03:53:30;;;;;;;7.40;3.10;;;;;10.62;97875.80;;;;110530;1252;41721;-61
2022/06/15 03:56:00;;;;;;;9.20;2.90;;;;;10.70;97880.80;;;;110491;1253;41519;-63
2022/06/15 03:58:30;;;;;;;7.10;2.80;;;;;10.80;97872.00;;;;110538;1254;41152;-62
2022/06/15 04:01:00;;;;;;;8.40;2.50;;;;;10.90;97877.00;;;;110583;1251;43012;-64
2022/06/15 04:03:31;;;;;;;6.20;2.60;;;;;11.00;97878.80;;;;110515;1251;41378;-62
2022/06/15 04:06:07;;;;;;;5.60;2.60;;;;;11.10;97878.20;;;;110431;1253;41342;-62
2022/06/15 04:08:43;;;;;;;5.60;2.40;;;;;11.20;97872.20;;;;110728;1251;41368;-63
2022/06/15 04:14:21;;;;;;;9.50;2.80;;;;;11.50;97873.60;;;;110629;1251;41314;-62
2022/06/15 04:16:56;;;;;;;9.30;3.00;;;;;11.70;97876.60;;;;110574;1253;41717;-62
2022/06/15 04:19:43;;;;;;;6.70;3.30;;;;;11.90;97873.00;;;;110592;1253;41710;-64
2022/06/15 04:22:13;;;;;;;7.60;2.80;;;;;12.24;97869.00;;;;110314;1254;41559;-62
2022/06/15 04:24:44;;;;;;;11.50;3.20;;;;;13.62;97850.00;;;;110696;1251;41236;-61
2022/06/15 04:27:14;;;;;;;7.30;2.90;;;;;14.94;97846.80;;;;110567;1253;41161;-61
2022/06/15 04:29:46;;;;;;;9.20;3.00;;;;;16.30;97845.80;;;;110504;1253;41155;-62
2022/06/15 04:32:17;;;;;;;8.60;3.10;;;;;17.66;97841.80;;;;110507;1253;41140;-62
2022/06/15 04:34:51;;;;;;;7.30;2.80;;;;;18.68;97841.00;;;;110671;1252;41597;-63
2022/06/15 04:37:23;;;;;;;8.20;3.00;;;;;19.60;97843.80;;;;110594;1252;41262;-62
2022/06/15 04:39:57;;;;;;;10.00;3.10;;;;;20.02;97837.20;;;;110345;1253;41998;-63
2022/06/15 04:42:26;;;;;;;6.20;2.90;;;;;20.56;97835.00;;;;110478;1253;41587;-62
2022/06/15 04:44:56;;;;;;;9.40;2.70;;;;;21.20;97833.80;;;;110474;1251;41266;-62
2022/06/15 04:47:25;;;;;;;10.10;3.40;;;;;21.50;97831.20;;;;110743;1250;41200;-62
2022/06/15 04:49:55;;;;;;;5.90;2.70;;;;;21.66;97834.20;;;;110621;1253;41177;-62
2022/06/15 04:52:26;;;;;;;6.60;2.80;;;;;22.10;97838.80;;;;110483;1253;41502;-62
2022/06/15 04:55:01;;;;;;;8.30;2.60;;;;;22.70;97834.80;;;;110567;1253;41308;-63
2022/06/15 04:57:31;;;;;;;6.40;2.40;;;;;23.22;97833.00;;;;110562;1252;41174;-63
2022/06/15 05:00:08;;;;;;;6.10;2.50;;;;;23.60;97828.80;;;;110579;1253;41275;-63
2022/06/15 05:02:37;;;;;;;7.00;2.70;;;;;23.92;97828.40;;;;110570;1252;41148;-63
2022/06/15 05:05:08;;;;;;;8.50;2.70;;;;;24.20;97828.80;;;;110731;1251;41803;-63
2022/06/15 05:07:38;;;;;;;8.60;3.10;;;;;24.00;97828.80;;;;110464;1253;41151;-63
2022/06/15 05:10:14;;;;;;;8.40;2.90;;;;;24.00;97827.40;;;;110562;1252;41159;-63
2022/06/15 05:12:43;;;;;;;9.60;2.40;;;;;24.02;97832.20;;;;110526;1253;41137;-63
2022/06/15 05:15:14;;;;;;;8.10;2.90;;;;;24.54;97838.80;;;;110777;1251;41901;-64
2022/06/15 05:17:45;;;;;;;7.70;2.80;;;;;25.10;97837.80;;;;110649;1251;41497;-62
2022/06/15 05:20:17;;;;;;;7.40;2.80;;;;;25.62;97835.20;;;;110448;1253;41228;-63
2022/06/15 05:22:52;;;;;;;7.70;2.90;;;;;26.04;97829.20;;;;110417;1253;41622;-63
2022/06/15 05:25:24;;;;;;;11.30;3.10;;;;;25.70;97833.40;;;;110512;1253;41639;-64
2022/06/15 05:27:53;;;;;;;8.10;3.00;;;;;25.02;97855.60;;;;110542;1253;41326;-62
2022/06/15 05:30:23;;;;;;;10.10;3.30;;;;;23.74;97870.20;;;;110536;1252;41607;-62
2022/06/15 05:32:52;;;;;;;12.20;3.60;;;;;22.10;97880.60;;;;110532;1253;42191;-64
2022/06/15 05:35:21;;;;;;;9.50;3.50;;;;;20.80;97887.40;;;;110730;1251;41269;-62
2022/06/15 05:37:51;;;;;;;10.30;3.30;;;;;20.18;97895.80;;;;110508;1253;41207;-62
2022/06/15 05:40:20;;;;;;;9.40;3.30;;;;;19.94;97898.40;;;;110592;1253;41166;-63
2022/06/15 05:42:50;;;;;;;9.20;3.00;;;;;19.90;97902.00;;;;110748;1250;41332;-65
2022/06/15 05:45:20;;;;;;;8.00;3.30;;;;;19.84;97900.80;;;;110593;1252;41262;-63
2022/06/15 05:47:51;;;;;;;9.40;3.20;;;;;19.62;97905.00;;;;110529;1253;41143;-64
2022/06/15 05:50:44;;;;;;;8.80;3.40;;;;;19.50;97906.00;;;;110662;1251;41263;-63
2022/06/15 05:53:16;;;;;;;8.30;2.90;;;;;19.40;97906.40;;;;110551;1250;41727;-63
2022/06/15 05:55:45;;;;;;;10.90;3.00;;;;;19.66;97902.60;;;;110723;1250;41141;-63
2022/06/15 05:58:15;;;;;;;5.90;2.50;;;;;20.34;97878.80;;;;110581;1253;41133;-63
2022/06/15 06:00:44;;;;;;;7.20;2.80;;;;;21.38;97867.60;;;;110526;1253;41708;-63
2022/06/15 06:03:16;;;;;;;7.40;2.70;;;;;22.52;97869.60;;;;110618;1250;41139;-64
2022/06/15 06:05:45;;;;;;;8.40;3.20;;;;;23.62;97866.60;;;;110623;1253;41887;-62
2022/06/15 06:08:15;;;;;;;9.40;3.50;;;;;24.20;97859.80;;;;110604;1251;41170;-63
2022/06/15 06:10:44;;;;;;;8.10;2.70;;;;;24.28;97864.40;;;;110660;1253;41156;-63
2022/06/15 06:13:13;;;;;;;10.50;3.00;;;;;23.90;97869.20;;;;110587;1253;41665;-63
2022/06/15 06:15:43;;;;;;;14.00;3.50;;;;;24.10;97868.80;;;;110643;1253;41143;-63
2022/06/15 06:18:13;;;;;;;8.20;2.90;;;;;24.10;97871.20;;;;110653;1253;41264;-63
2022/06/15 06:20:42;;;;;;;10.30;3.70;;;;;24.30;97872.20;;;;110669;1251;42184;-64
2022/06/15 06:23:11;;;;;;;11.70;3.30;;;;;24.40;97871.80;;;;110746;1250;41609;-63
2022/06/15 06:25:43;;;;;;;9.00;3.40;;;;;23.70;97876.00;;;;110594;1253;41551;-61
2022/06/15 06:28:23;;;;;;;9.10;3.10;;;;;23.52;97884.20;;;;110643;1252;41153;-64
2022/06/15 06:30:57;;;;;;;8.10;2.80;;;;;23.48;97884.00;;;;110706;1251;41154;-62
2022/06/15 06:33:29;;;;;;;7.60;2.60;;;;;23.50;97893.00;;;;110691;1252;41719;-63
2022/06/15 06:36:02;;;;;;;5.60;2.30;;;;;24.14;97892.20;;;;110656;1252;42404;-63
2022/06/15 06:38:32;;;;;;;6.40;2.90;;;;;24.88;97895.20;;;;110742;1252;41412;-64
2022/06/15 06:41:02;;;;;;;6.50;2.50;;;;;25.70;97896.20;;;;110808;1250;41170;-63
2022/06/15 06:43:31;;;;;;;5.70;2.20;;;;;25.94;97897.60;;;;110609;1251;41151;-62
2022/06/15 06:46:00;;;;;;;6.40;2.30;;;;;26.40;97902.80;;;;110683;1253;41139;-63
2022/06/15 06:48:30;;;;;;;6.00;2.30;;;;;26.26;97902.80;;;;110551;1253;41136;-63
2022/06/15 06:50:59;;;;;;;6.00;2.20;;;;;25.72;97898.00;;;;110589;1253;41136;-63
2022/06/15 06:53:28;;;;;;;8.30;2.50;;;;;25.86;97901.60;;;;110587;1251;42201;-63
2022/06/15 06:56:02;;;;;;;5.60;2.30;;;;;25.70;97899.20;;;;110528;1253;41733;-61
2022/06/15 06:58:32;;;;;;;5.70;2.20;;;;;25.30;97900.40;;;;110550;1253;41163;-64
2022/06/15 07:01:01;;;;;;;7.40;2.30;;;;;25.60;97903.60;;;;110665;1250;41158;-63
2022/06/15 07:03:30;;;;;;;4.50;1.80;;;;;26.32;97896.20;;;;110657;1252;41152;-64
2022/06/15 07:06:02;;;;;;;7.00;1.90;;;;;27.26;97894.60;;;;110628;1251;41173;-64
2022/06/15 07:08:31;;;;;;;5.10;1.90;;;;;28.16;97894.60;;;;110666;1253;41494;-64
2022/06/15 07:11:01;;;;;;;6.10;2.30;;;;;27.80;97889.40;;;;110649;1253;41496;-63
2022/06/15 07:13:31;;;;;;;7.20;1.90;;;;;27.56;97888.80;;;;110607;1253;41642;-63
2022/06/15 07:16:06;;;;;;;4.80;2.00;;;;;27.30;97891.80;;;;110706;1253;41645;-64
2022/06/15 07:18:36;;;;;;;5.30;2.10;;;;;27.10;97892.20;;;;110632;1253;41130;-63
2022/06/15 07:21:11;;;;;;;3.60;1.90;;;;;26.74;97893.00;;;;110844;1252;40755;-64
2022/06/15 07:23:42;;;;;;;4.80;1.90;;;;;26.62;97895.20;;;;110650;1253;41162;-63
2022/06/15 07:26:15;;;;;;;8.00;1.90;;;;;26.46;97896.80;;;;110779;1250;42208;-63
2022/06/15 07:28:45;;;;;;;3.70;1.90;;;;;26.30;97897.60;;;;110289;1251;41424;-62
2022/06/15 07:31:29;;;;;;;5.50;2.20;;;;;26.20;97899.80;;;;110673;1251;41260;-64
2022/06/15 07:33:59;;;;;;;5.00;2.10;;;;;26.00;97901.20;;;;110669;1253;41779;-64
2022/06/15 07:36:39;;;;;;;5.80;2.10;;;;;25.80;97900.60;;;;110627;1253;41264;-64
2022/06/15 07:39:09;;;;;;;4.90;2.00;;;;;25.76;97902.00;;;;110552;1252;41151;-64
2022/06/15 07:41:41;;;;;;;5.50;1.90;;;;;25.60;97895.60;;;;110307;1254;41162;-64
2022/06/15 07:44:10;;;;;;;7.10;2.10;;;;;25.60;97902.20;;;;110506;1251;41267;-63
2022/06/15 07:46:40;;;;;;;4.90;1.80;;;;;25.60;97900.20;;;;110735;1253;41267;-62
2022/06/15 07:52:00;;;;;;;4.10;2.00;;;;;25.50;97902.00;;;;110490;1253;41257;-64
2022/06/15 07:54:30;;;;;;;4.40;1.80;;;;;25.50;97897.20;;;;110614;1251;41630;-65
2022/06/15 07:56:59;;;;;;;5.10;1.90;;;;;25.46;97903.40;;;;110485;1253;41901;-64
2022/06/15 07:59:28;;;;;;;5.20;1.80;;;;;25.48;97901.40;;;;110507;1254;41250;-64
2022/06/15 08:01:58;;;;;;;4.90;2.00;;;;;25.44;97902.40;;;;110617;1251;41154;-63
2022/06/15 08:04:37;;;;;;;6.80;2.30;;;;;25.50;97898.80;;;;110493;1253;41703;-63
2022/06/15 08:07:08;;;;;;;4.20;1.90;;;;;25.42;97900.20;;;;110653;1253;41182;-63
2022/06/15 08:09:38;;;;;;;5.30;2.00;;;;;25.30;97903.40;;;;110516;1253;41152;-64
2022/06/15 08:12:12;;;;;;;6.40;2.00;;;;;25.30;97904.80;;;;110500;1253;41276;-64
2022/06/15 08:14:51;;;;;;;7.00;2.10;;;;;25.40;97903.00;;;;110639;1252;41156;-64
2022/06/15 08:17:25;;;;;;;7.60;2.40;;;;;25.40;97901.20;;;;110444;1253;41164;-64
2022/06/15 08:20:00;;;;;;;6.50;2.00;;;;;24.56;97903.60;;;;110628;1251;41133;-64
2022/06/15 08:22:29;;;;;;;4.90;2.00;;;;;24.90;97906.80;;;;110647;1251;41137;-63
2022/06/15 08:24:59;;;;;;;4.60;1.80;;;;;24.38;97908.00;;;;110571;1253;40754;-64
2022/06/15 08:27:29;;;;;;;5.40;2.10;;;;;24.86;97907.60;;;;110556;1253;41159;-64
2022/06/15 08:29:58;;;;;;;5.40;1.80;;;;;25.00;97903.40;;;;110531;1253;42129;-64
2022/06/15 08:32:27;;;;;;;5.20;2.00;;;;;25.02;97910.40;;;;110673;1252;41317;-64
2022/06/15 08:34:56;;;;;;;6.00;2.10;;;;;24.48;97908.20;;;;110717;1253;41455;-65
2022/06/15 08:37:25;;;;;;;5.70;1.90;;;;;24.86;97905.60;;;;110619;1252;42285;-64
2022/06/15 08:39:54;;;;;;;4.40;1.90;;;;;25.02;97906.60;;;;110600;1253;41149;-64
2022/06/15 08:43:17;;;;;;;6.00;2.00;;;;;25.28;97909.80;;;;110792;1252;41204;-64
2022/06/15 08:45:49;;;;;;;4.00;1.80;;;;;25.40;97908.00;;;;110153;1259;41282;-64
2022/06/15 08:48:43;;;;;;;7.20;1.90;;;;;25.42;97910.00;;;;110145;1259;41149;-65
2022/06/15 08:51:22;;;;;;;5.80;2.00;;;;;25.52;97908.80;;;;110051;1259;41252;-65
2022/06/15 08:54:18;;;;;;;3.80;1.70;;;;;25.70;97908.20;;;;110089;1259;41143;-62
2022/06/15 08:56:52;;;;;;;4.80;1.70;;;;;26.00;97900.80;;;;109958;1258;41752;-64
2022/06/15 08:59:47;;;;;;;5.10;1.90;;;;;26.00;97902.00;;;;110196;1257;41196;-64
2022/06/15 09:02:35;;;;;;;3.20;1.60;;;;;26.00;97904.40;;;;109872;1261;41872;-64
2022/06/15 09:05:07;;;;;;;7.30;1.90;;;;;26.26;97906.00;;;;110202;1257;41272;-64
2022/06/15 09:08:04;;;;;;;3.30;1.50;;;;;26.40;97910.40;;;;110094;1259;41168;-64
2022/06/15 09:10:40;;;;;;;3.60;1.50;;;;;26.70;97904.20;;;;110058;1260;41274;-64
2022/06/15 09:13:30;;;;;;;5.00;1.60;;;;;27.10;97892.40;;;;110042;1259;42517;-64
2022/06/15 09:16:43;;;;;;;5.90;1.70;;;;;27.50;97900.40;;;;109969;1259;41160;-67
2022/06/15 09:19:27;;;;;;;6.70;2.00;;;;;27.84;97891.40;;;;110040;1253;41185;-65
2022/06/15 09:22:22;;;;;;;4.40;1.70;;;;;28.20;97886.80;;;;110496;1253;41186;-65
2022/06/15 09:25:13;;;;;;;3.40;1.70;;;;;28.52;97894.40;;;;110603;1251;42303;-64
2022/06/15 09:28:10;;;;;;;3.50;1.40;;;;;29.30;97894.00;;;;110592;1253;40741;-63
2022/06/15 09:30:42;;;;;;;5.00;1.80;;;;;29.64;97894.60;;;;110641;1253;42554;-65
2022/06/15 09:33:29;;;;;;;3.00;1.50;;;;;29.40;97888.00;;;;110591;1253;41136;-63
2022/06/15 09:36:21;;;;;;;4.60;1.70;;;;;30.08;97885.00;;;;110672;1253;42401;-64
2022/06/15 09:38:50;;;;;;;5.10;1.90;;;;;30.60;97889.20;;;;110656;1253;41604;-64
2022/06/15 09:41:26;;;;;;;3.60;1.60;;;;;31.20;97888.40;;;;110720;1253;41567;-64
2022/06/15 09:44:16;;;;;;;5.70;1.50;;;;;31.16;97884.60;;;;110688;1251;41162;-65
2022/06/15 09:47:29;;;;;;;3.70;1.60;;;;;31.40;97881.60;;;;110559;1251;41290;-65
2022/06/15 09:50:07;;;;;;;3.70;1.60;;;;;31.78;97886.00;;;;110594;1253;41598;-65
2022/06/15 09:53:00;;;;;;;5.80;1.40;;;;;31.56;97884.80;;;;110569;1252;41147;-64
2022/06/15 09:55:40;;;;;;;3.40;1.50;;;;;30.28;97890.00;;;;110646;1252;41168;-65
2022/06/15 09:58:39;;;;;;;4.90;1.70;;;;;29.82;97891.00;;;;110661;1252;42524;-64
2022/06/15 10:01:09;;;;;;;5.30;1.60;;;;;29.50;97889.40;;;;110704;1250;41270;-65
2022/06/15 10:03:43;;;;;;;5.20;1.80;;;;;29.88;97889.20;;;;110487;1252;41579;-64
2022/06/15 10:06:28;;;;;;;3.40;1.60;;;;;30.40;97884.00;;;;110701;1251;41139;-64
2022/06/15 10:08:59;;;;;;;3.40;1.60;;;;;30.66;97872.00;;;;110579;1253;41573;-64
2022/06/15 10:11:35;;;;;;;4.20;1.60;;;;;31.10;97870.60;;;;110687;1252;41146;-65
2022/06/15 10:14:19;;;;;;;8.00;1.70;;;;;31.58;97863.80;;;;110575;1252;41434;-64
2022/06/15 10:17:06;;;;;;;4.30;1.50;;;;;31.70;97869.40;;;;110535;1253;41275;-65
2022/06/15 10:19:35;;;;;;;4.90;1.70;;;;;31.80;97870.00;;;;110531;1253;41666;-64
2022/06/15 10:22:08;;;;;;;5.00;1.60;;;;;32.00;97864.20;;;;110555;1253;41385;-64
2022/06/15 10:24:43;;;;;;;4.20;1.60;;;;;32.20;97869.60;;;;110638;1251;41933;-64
2022/06/15 10:27:24;;;;;;;3.90;1.40;;;;;32.02;97866.60;;;;110476;1253;41861;-63
2022/06/15 10:30:17;;;;;;;4.30;1.70;;;;;31.96;97861.20;;;;110626;1250;41152;-64
2022/06/15 10:33:02;;;;;;;3.20;1.60;;;;;32.04;97858.40;;;;110809;1252;41268;-64
2022/06/15 10:35:35;;;;;;;3.50;1.60;;;;;31.70;97857.00;;;;110541;1253;41272;-64
2022/06/15 10:38:10;;;;;;;3.90;1.60;;;;;31.50;97863.00;;;;110540;1253;41158;-64
2022/06/15 10:40:54;;;;;;;3.60;1.60;;;;;31.10;97861.80;;;;110532;1254;41700;-64
2022/06/15 10:43:28;;;;;;;4.90;1.50;;;;;30.88;97864.60;;;;110582;1252;42251;-64
2022/06/15 10:46:03;;;;;;;4.60;1.70;;;;;30.34;97862.20;;;;110646;1252;41152;-64
2022/06/15 10:48:35;;;;;;;3.70;1.50;;;;;29.88;97865.20;;;;110586;1253;41143;-63
2022/06/15 10:51:04;;;;;;;3.00;1.40;;;;;29.72;97860.60;;;;110670;1252;42845;-64
2022/06/15 10:53:46;;;;;;;4.50;1.70;;;;;30.12;97856.20;;;;110659;1252;41146;-64
2022/06/15 11:02:38;;;;;;;3.10;1.40;;;;;30.48;97857.60;;;;110617;1250;42580;-64
2022/06/15 11:05:10;;;;;;;3.40;1.50;;;;;30.24;97857.60;;;;110584;1253;41137;-64
2022/06/15 11:07:44;;;;;;;3.70;1.50;;;;;30.10;97851.40;;;;110730;1253;41252;-64
2022/06/15 11:10:27;;;;;;;4.30;1.60;;;;;29.94;97851.80;;;;110708;1253;41632;-64
2022/06/15 11:13:00;;;;;;;5.50;1.70;;;;;29.70;97845.00;;;;110687;1253;41132;-63
2022/06/15 11:18:41;;;;;;;5.90;1.90;;;;;30.62;97833.40;;;;110662;1253;41474;-64
2022/06/15 11:21:22;;;;;;;5.30;1.80;;;;;30.14;97851.00;;;;110527;1253;41264;-65
2022/06/15 11:23:58;;;;;;;4.40;1.50;;;;;29.80;97848.60;;;;110583;1251;41152;-65
2022/06/15 11:26:57;;;;;;;3.50;1.40;;;;;29.40;97852.20;;;;110705;1253;41780;-65
2022/06/15 11:29:56;;;;;;;3.40;1.40;;;;;29.80;97845.00;;;;110667;1250;41943;-65
2022/06/15 11:32:33;;;;;;;3.10;1.30;;;;;30.18;97844.40;;;;110657;1252;42205;-65
2022/06/15 11:35:12;;;;;;;3.70;1.60;;;;;30.00;97842.80;;;;110680;1250;41140;-65
2022/06/15 11:38:05;;;;;;;5.70;1.90;;;;;30.46;97838.20;;;;110516;1253;41176;-64
2022/06/15 11:40:56;;;;;;;2.40;1.30;;;;;31.20;97836.00;;;;110658;1253;41248;-64
2022/06/15 11:43:37;;;;;;;3.40;1.40;;;;;32.56;97826.80;;;;110526;1252;43135;-63
2022/06/15 11:46:28;;;;;;;1.90;1.30;;;;;33.94;97837.80;;;;110525;1253;41172;-64
2022/06/15 11:49:03;;;;;;;2.90;1.40;;;;;34.00;97841.00;;;;110777;1250;41152;-63
2022/06/15 11:51:56;;;;;;;4.20;1.50;;;;;33.36;97841.00;;;;110702;1250;42726;-64
2022/06/15 11:54:43;;;;;;;3.30;1.30;;;;;32.20;97841.20;;;;110601;1253;41155;-63
2022/06/15 11:57:37;;;;;;;4.30;1.30;;;;;31.52;97839.20;;;;110544;1253;41260;-64
2022/06/15 12:00:21;;;;;;;2.50;1.20;;;;;30.86;97839.00;;;;110691;1253;41264;-64
2022/06/15 12:03:23;;;;;;;3.30;1.50;;;;;30.30;97839.40;;;;110701;1253;41177;-64
2022/06/15 12:06:22;;;;;;;3.80;1.40;;;;;29.92;97836.80;;;;110653;1253;41162;-63
2022/06/15 12:09:03;;;;;;;4.30;1.30;;;;;29.70;97832.80;;;;110817;1252;41252;-64
2022/06/15 12:14:48;;;;;;;4.30;1.50;;;;;29.60;97828.20;;;;110666;1252;42105;-64
2022/06/15 12:17:38;;;;;;;3.80;1.50;;;;;29.68;97833.00;;;;110681;1252;42042;-65
2022/06/15 12:20:30;;;;;;;4.60;1.40;;;;;29.70;97836.60;;;;110686;1253;41254;-63
2022/06/15 12:23:17;;;;;;;7.90;1.80;;;;;29.54;97831.80;;;;110649;1253;42372;-64
2022/06/15 12:26:15;;;;;;;2.60;1.30;;;;;29.04;97833.40;;;;110661;1252;41600;-64
2022/06/15 12:28:51;;;;;;;3.20;1.50;;;;;28.72;97835.20;;;;110596;1250;41147;-64
2022/06/15 12:31:57;;;;;;;3.10;1.40;;;;;28.50;97836.20;;;;110643;1253;41371;-64
2022/06/15 12:34:38;;;;;;;4.70;1.60;;;;;28.28;97830.40;;;;110726;1253;41181;-64
2022/06/15 12:37:26;;;;;;;2.80;1.50;;;;;27.96;97829.20;;;;110526;1253;41397;-64
2022/06/15 12:40:20;;;;;;;3.10;1.50;;;;;27.90;97829.00;;;;110785;1252;41451;-64
2022/06/15 12:42:55;;;;;;;2.60;1.50;;;;;28.00;97824.00;;;;110686;1251;41268;-62
2022/06/15 12:45:32;;;;;;;3.00;1.50;;;;;28.14;97819.60;;;;110619;1251;41158;-64
2022/06/15 12:48:05;;;;;;;3.20;1.50;;;;;28.24;97813.80;;;;110743;1251;41126;-63
2022/06/15 12:50:40;;;;;;;7.10;1.90;;;;;28.24;97812.60;;;;110561;1254;41157;-64
2022/06/15 12:53:12;;;;;;;4.00;1.60;;;;;28.20;97813.20;;;;110680;1252;41597;-64
2022/06/15 12:55:58;;;;;;;5.90;1.50;;;;;28.16;97813.00;;;;110545;1253;41722;-64
2022/06/15 12:58:37;;;;;;;4.90;1.60;;;;;28.20;97805.00;;;;110530;1254;41779;-64
2022/06/15 13:01:23;;;;;;;3.80;1.60;;;;;28.20;97805.20;;;;110600;1253;41947;-64
2022/06/15 13:04:10;;;;;;;3.30;1.60;;;;;28.00;97805.40;;;;110530;1253;41341;-64
2022/06/15 13:06:41;;;;;;;4.20;1.50;;;;;27.92;97803.20;;;;110600;1252;41276;-65
2022/06/15 13:09:18;;;;;;;2.40;1.50;;;;;28.04;97803.00;;;;110507;1253;41610;-64
2022/06/15 13:12:04;;;;;;;5.50;1.60;;;;;28.20;97797.60;;;;110603;1253;41143;-63
2022/06/15 13:14:53;;;;;;;3.30;1.40;;;;;28.32;97795.60;;;;110608;1251;41905;-63
2022/06/15 13:17:30;;;;;;;4.50;1.50;;;;;28.30;97792.60;;;;110706;1250;41165;-64